sensor_id;sensor_type;location;lat;lon;timestamp;temperature;humidity
68011;DHT22;54794;48.348;7.878;2023-03-31T00:00:59;16.90;51.80
68011;DHT22;54794;48.348;7.878;2023-03-31T00:03:26;16.90;51.70
68011;DHT22;54794;48.348;7.878;2023-03-31T00:05:58;16.90;52.30
68011;DHT22;54794;48.348;7.878;2023-03-31T00:08:27;16.90;51.90
68011;DHT22;54794;48.348;7.878;2023-03-31T00:11:03;16.90;51.90
68011;DHT22;54794;48.348;7.878;2023-03-31T00:13:33;16.90;51.90
68011;DHT22;54794;48.348;7.878;2023-03-31T00:16:04;16.90;51.90
68011;DHT22;54794;48.348;7.878;2023-03-31T00:18:35;16.90;51.80
68011;DHT22;54794;48.348;7.878;2023-03-31T00:21:11;16.90;51.80
68011;DHT22;54794;48.348;7.878;2023-03-31T00:23:40;16.90;51.80
68011;DHT22;54794;48.348;7.878;2023-03-31T00:26:07;16.90;51.90
68011;DHT22;54794;48.348;7.878;2023-03-31T00:28:34;16.90;51.90
68011;DHT22;54794;48.348;7.878;2023-03-31T00:31:02;16.90;52.00
68011;DHT22;54794;48.348;7.878;2023-03-31T00:33:29;16.90;52.10
68011;DHT22;54794;48.348;7.878;2023-03-31T00:35:56;16.90;52.70
68011;DHT22;54794;48.348;7.878;2023-03-31T00:38:28;16.90;52.20
68011;DHT22;54794;48.348;7.878;2023-03-31T00:40:56;16.90;52.30
68011;DHT22;54794;48.348;7.878;2023-03-31T00:43:32;16.80;52.30
68011;DHT22;54794;48.348;7.878;2023-03-31T00:46:26;16.80;52.40
68011;DHT22;54794;48.348;7.878;2023-03-31T00:49:00;16.80;53.20
68011;DHT22;54794;48.348;7.878;2023-03-31T00:51:31;16.70;52.60
68011;DHT22;54794;48.348;7.878;2023-03-31T00:54:03;16.70;52.70
68011;DHT22;54794;48.348;7.878;2023-03-31T00:56:39;16.60;52.80
68011;DHT22;54794;48.348;7.878;2023-03-31T00:59:11;16.60;53.00
68011;DHT22;54794;48.348;7.878;2023-03-31T01:01:39;16.50;52.90
68011;DHT22;54794;48.348;7.878;2023-03-31T01:04:12;16.50;53.00
68011;DHT22;54794;48.348;7.878;2023-03-31T01:06:47;16.40;53.10
68011;DHT22;54794;48.348;7.878;2023-03-31T01:09:23;16.30;53.50
68011;DHT22;54794;48.348;7.878;2023-03-31T01:11:51;16.30;53.40
68011;DHT22;54794;48.348;7.878;2023-03-31T01:14:18;16.30;53.50
68011;DHT22;54794;48.348;7.878;2023-03-31T01:16:45;16.20;53.60
68011;DHT22;54794;48.348;7.878;2023-03-31T01:19:46;16.20;53.60
68011;DHT22;54794;48.348;7.878;2023-03-31T01:29:43;16.10;54.50
68011;DHT22;54794;48.348;7.878;2023-03-31T01:41:41;16.00;54.40
68011;DHT22;54794;48.348;7.878;2023-03-31T01:44:39;15.90;54.70
68011;DHT22;54794;48.348;7.878;2023-03-31T01:47:23;15.90;55.00
68011;DHT22;54794;48.348;7.878;2023-03-31T01:50:10;15.90;54.60
68011;DHT22;54794;48.348;7.878;2023-03-31T01:52:55;15.80;55.00
68011;DHT22;54794;48.348;7.878;2023-03-31T01:55:47;15.80;55.20
68011;DHT22;54794;48.348;7.878;2023-03-31T01:58:39;15.80;55.10
68011;DHT22;54794;48.348;7.878;2023-03-31T02:01:16;15.70;55.10
68011;DHT22;54794;48.348;7.878;2023-03-31T02:06:57;15.70;55.10
68011;DHT22;54794;48.348;7.878;2023-03-31T02:09:33;15.70;55.10
68011;DHT22;54794;48.348;7.878;2023-03-31T02:12:07;15.60;55.10
68011;DHT22;54794;48.348;7.878;2023-03-31T02:14:39;15.60;55.20
68011;DHT22;54794;48.348;7.878;2023-03-31T02:17:16;15.60;55.30
68011;DHT22;54794;48.348;7.878;2023-03-31T02:19:49;15.60;55.40
68011;DHT22;54794;48.348;7.878;2023-03-31T02:22:20;15.60;55.40
68011;DHT22;54794;48.348;7.878;2023-03-31T02:24:51;15.60;55.50
68011;DHT22;54794;48.348;7.878;2023-03-31T02:27:24;15.50;55.50
68011;DHT22;54794;48.348;7.878;2023-03-31T02:29:54;15.50;55.60
68011;DHT22;54794;48.348;7.878;2023-03-31T02:32:29;15.50;55.80
68011;DHT22;54794;48.348;7.878;2023-03-31T02:34:59;15.40;56.20
68011;DHT22;54794;48.348;7.878;2023-03-31T02:37:27;15.40;55.80
68011;DHT22;54794;48.348;7.878;2023-03-31T02:39:58;15.40;56.00
68011;DHT22;54794;48.348;7.878;2023-03-31T02:42:31;15.40;56.10
68011;DHT22;54794;48.348;7.878;2023-03-31T02:45:03;15.30;56.50
68011;DHT22;54794;48.348;7.878;2023-03-31T02:47:32;15.30;56.60
68011;DHT22;54794;48.348;7.878;2023-03-31T02:50:01;15.20;56.30
68011;DHT22;54794;48.348;7.878;2023-03-31T02:55:14;15.10;56.30
68011;DHT22;54794;48.348;7.878;2023-03-31T03:01:08;15.00;56.90
68011;DHT22;54794;48.348;7.878;2023-03-31T03:06:42;15.00;57.60
68011;DHT22;54794;48.348;7.878;2023-03-31T03:15:29;14.90;58.10
68011;DHT22;54794;48.348;7.878;2023-03-31T03:18:10;14.90;56.90
68011;DHT22;54794;48.348;7.878;2023-03-31T03:20:38;14.90;57.10
68011;DHT22;54794;48.348;7.878;2023-03-31T03:23:08;14.90;57.10
68011;DHT22;54794;48.348;7.878;2023-03-31T03:25:34;14.90;57.10
68011;DHT22;54794;48.348;7.878;2023-03-31T03:28:01;14.80;57.10
68011;DHT22;54794;48.348;7.878;2023-03-31T03:30:29;14.80;57.90
68011;DHT22;54794;48.348;7.878;2023-03-31T03:32:56;14.80;57.20
68011;DHT22;54794;48.348;7.878;2023-03-31T03:35:24;14.80;57.20
68011;DHT22;54794;48.348;7.878;2023-03-31T03:37:51;14.80;57.30
68011;DHT22;54794;48.348;7.878;2023-03-31T03:40:18;14.80;57.40
68011;DHT22;54794;48.348;7.878;2023-03-31T03:42:45;14.80;57.30
68011;DHT22;54794;48.348;7.878;2023-03-31T03:45:12;14.80;57.30
68011;DHT22;54794;48.348;7.878;2023-03-31T03:47:39;14.70;57.20
68011;DHT22;54794;48.348;7.878;2023-03-31T03:50:06;14.70;57.50
68011;DHT22;54794;48.348;7.878;2023-03-31T03:52:33;14.70;57.40
68011;DHT22;54794;48.348;7.878;2023-03-31T03:55:00;14.70;57.40
68011;DHT22;54794;48.348;7.878;2023-03-31T03:57:27;14.70;57.40
68011;DHT22;54794;48.348;7.878;2023-03-31T03:59:54;14.70;57.40
68011;DHT22;54794;48.348;7.878;2023-03-31T04:02:21;14.70;57.60
68011;DHT22;54794;48.348;7.878;2023-03-31T04:04:51;14.70;57.70
68011;DHT22;54794;48.348;7.878;2023-03-31T04:07:18;14.70;57.50
68011;DHT22;54794;48.348;7.878;2023-03-31T04:09:45;14.70;57.60
68011;DHT22;54794;48.348;7.878;2023-03-31T04:12:12;14.70;57.70
68011;DHT22;54794;48.348;7.878;2023-03-31T04:14:39;14.70;57.70
68011;DHT22;54794;48.348;7.878;2023-03-31T04:17:06;14.70;57.70
68011;DHT22;54794;48.348;7.878;2023-03-31T04:19:33;14.70;57.80
68011;DHT22;54794;48.348;7.878;2023-03-31T04:22:00;14.80;58.00
68011;DHT22;54794;48.348;7.878;2023-03-31T04:24:28;14.80;58.00
68011;DHT22;54794;48.348;7.878;2023-03-31T04:27:00;14.80;58.00
68011;DHT22;54794;48.348;7.878;2023-03-31T04:29:28;14.80;58.10
68011;DHT22;54794;48.348;7.878;2023-03-31T04:31:59;14.80;58.00
68011;DHT22;54794;48.348;7.878;2023-03-31T04:34:26;14.80;58.10
68011;DHT22;54794;48.348;7.878;2023-03-31T04:37:01;14.80;58.10
68011;DHT22;54794;48.348;7.878;2023-03-31T04:39:29;14.80;58.20
68011;DHT22;54794;48.348;7.878;2023-03-31T04:41:57;14.80;58.20
68011;DHT22;54794;48.348;7.878;2023-03-31T04:44:26;14.80;58.20
68011;DHT22;54794;48.348;7.878;2023-03-31T04:46:53;14.80;58.30
68011;DHT22;54794;48.348;7.878;2023-03-31T04:49:21;14.70;58.30
68011;DHT22;54794;48.348;7.878;2023-03-31T04:51:48;14.70;58.40
68011;DHT22;54794;48.348;7.878;2023-03-31T04:54:15;14.70;58.40
68011;DHT22;54794;48.348;7.878;2023-03-31T04:56:42;14.70;58.40
68011;DHT22;54794;48.348;7.878;2023-03-31T04:59:09;14.70;58.50
68011;DHT22;54794;48.348;7.878;2023-03-31T05:01:36;14.70;58.50
68011;DHT22;54794;48.348;7.878;2023-03-31T05:04:04;14.70;58.80
68011;DHT22;54794;48.348;7.878;2023-03-31T05:06:31;14.60;58.30
68011;DHT22;54794;48.348;7.878;2023-03-31T05:08:58;14.70;58.60
68011;DHT22;54794;48.348;7.878;2023-03-31T05:11:25;14.70;58.40
68011;DHT22;54794;48.348;7.878;2023-03-31T05:13:53;14.60;58.50
68011;DHT22;54794;48.348;7.878;2023-03-31T05:16:20;14.60;58.70
68011;DHT22;54794;48.348;7.878;2023-03-31T05:18:47;14.60;58.80
68011;DHT22;54794;48.348;7.878;2023-03-31T05:21:16;14.60;58.90
68011;DHT22;54794;48.348;7.878;2023-03-31T05:23:45;14.70;59.00
68011;DHT22;54794;48.348;7.878;2023-03-31T05:26:13;14.70;59.00
68011;DHT22;54794;48.348;7.878;2023-03-31T05:28:40;14.60;59.00
68011;DHT22;54794;48.348;7.878;2023-03-31T05:31:08;14.70;59.10
68011;DHT22;54794;48.348;7.878;2023-03-31T05:33:36;14.70;59.20
68011;DHT22;54794;48.348;7.878;2023-03-31T05:36:10;14.70;59.20
68011;DHT22;54794;48.348;7.878;2023-03-31T05:38:42;14.70;59.30
68011;DHT22;54794;48.348;7.878;2023-03-31T05:41:09;14.70;59.30
68011;DHT22;54794;48.348;7.878;2023-03-31T05:43:37;14.70;59.30
68011;DHT22;54794;48.348;7.878;2023-03-31T05:46:05;14.70;59.30
68011;DHT22;54794;48.348;7.878;2023-03-31T05:48:34;14.70;59.30
68011;DHT22;54794;48.348;7.878;2023-03-31T05:51:02;14.70;59.50
68011;DHT22;54794;48.348;7.878;2023-03-31T05:53:29;14.70;59.50
68011;DHT22;54794;48.348;7.878;2023-03-31T05:55:58;14.70;59.50
68011;DHT22;54794;48.348;7.878;2023-03-31T05:58:27;14.70;59.60
68011;DHT22;54794;48.348;7.878;2023-03-31T06:01:11;14.70;59.70
68011;DHT22;54794;48.348;7.878;2023-03-31T06:03:46;14.70;60.30
68011;DHT22;54794;48.348;7.878;2023-03-31T06:06:13;14.70;59.80
68011;DHT22;54794;48.348;7.878;2023-03-31T06:08:44;14.70;60.30
68011;DHT22;54794;48.348;7.878;2023-03-31T06:11:16;14.70;60.50
68011;DHT22;54794;48.348;7.878;2023-03-31T06:13:48;14.70;60.10
68011;DHT22;54794;48.348;7.878;2023-03-31T06:16:22;14.70;60.30
68011;DHT22;54794;48.348;7.878;2023-03-31T06:18:52;14.60;60.10
68011;DHT22;54794;48.348;7.878;2023-03-31T06:21:21;14.70;61.00
68011;DHT22;54794;48.348;7.878;2023-03-31T06:23:49;14.60;60.50
68011;DHT22;54794;48.348;7.878;2023-03-31T06:26:18;14.60;60.20
68011;DHT22;54794;48.348;7.878;2023-03-31T06:28:45;14.60;60.40
68011;DHT22;54794;48.348;7.878;2023-03-31T06:31:15;14.70;60.60
68011;DHT22;54794;48.348;7.878;2023-03-31T06:33:43;14.60;60.50
68011;DHT22;54794;48.348;7.878;2023-03-31T06:36:12;14.70;60.50
68011;DHT22;54794;48.348;7.878;2023-03-31T06:38:41;14.70;60.50
68011;DHT22;54794;48.348;7.878;2023-03-31T06:41:11;14.70;60.60
68011;DHT22;54794;48.348;7.878;2023-03-31T06:43:40;14.70;60.80
68011;DHT22;54794;48.348;7.878;2023-03-31T06:46:08;14.70;60.60
68011;DHT22;54794;48.348;7.878;2023-03-31T06:48:37;14.70;60.70
68011;DHT22;54794;48.348;7.878;2023-03-31T06:51:06;14.70;60.70
68011;DHT22;54794;48.348;7.878;2023-03-31T06:53:34;14.70;60.80
68011;DHT22;54794;48.348;7.878;2023-03-31T06:56:03;14.70;61.00
68011;DHT22;54794;48.348;7.878;2023-03-31T06:58:32;14.70;61.10
68011;DHT22;54794;48.348;7.878;2023-03-31T07:01:02;14.70;61.10
68011;DHT22;54794;48.348;7.878;2023-03-31T07:03:31;14.70;61.10
68011;DHT22;54794;48.348;7.878;2023-03-31T07:06:01;14.70;60.90
68011;DHT22;54794;48.348;7.878;2023-03-31T07:08:31;14.70;61.00
68011;DHT22;54794;48.348;7.878;2023-03-31T07:10:59;14.70;61.00
68011;DHT22;54794;48.348;7.878;2023-03-31T07:13:27;14.80;61.00
68011;DHT22;54794;48.348;7.878;2023-03-31T07:15:54;14.80;61.10
68011;DHT22;54794;48.348;7.878;2023-03-31T07:18:35;14.80;60.90
68011;DHT22;54794;48.348;7.878;2023-03-31T07:21:08;14.80;60.90
68011;DHT22;54794;48.348;7.878;2023-03-31T07:23:36;14.80;60.80
68011;DHT22;54794;48.348;7.878;2023-03-31T07:26:04;14.80;61.00
68011;DHT22;54794;48.348;7.878;2023-03-31T07:28:31;14.80;60.80
68011;DHT22;54794;48.348;7.878;2023-03-31T07:30:58;14.90;60.90
68011;DHT22;54794;48.348;7.878;2023-03-31T07:33:25;14.90;61.00
68011;DHT22;54794;48.348;7.878;2023-03-31T07:35:52;14.90;61.00
68011;DHT22;54794;48.348;7.878;2023-03-31T07:38:44;15.00;61.00
68011;DHT22;54794;48.348;7.878;2023-03-31T07:41:19;15.00;60.90
68011;DHT22;54794;48.348;7.878;2023-03-31T07:43:47;15.00;61.00
68011;DHT22;54794;48.348;7.878;2023-03-31T07:46:28;15.10;61.10
68011;DHT22;54794;48.348;7.878;2023-03-31T07:48:57;15.10;61.00
68011;DHT22;54794;48.348;7.878;2023-03-31T07:51:46;15.20;61.20
68011;DHT22;54794;48.348;7.878;2023-03-31T07:54:13;15.30;61.10
68011;DHT22;54794;48.348;7.878;2023-03-31T07:56:40;15.40;61.10
68011;DHT22;54794;48.348;7.878;2023-03-31T07:59:07;15.40;61.00
68011;DHT22;54794;48.348;7.878;2023-03-31T08:01:34;15.50;60.90
68011;DHT22;54794;48.348;7.878;2023-03-31T08:04:02;15.60;60.80
68011;DHT22;54794;48.348;7.878;2023-03-31T08:06:32;15.60;60.90
68011;DHT22;54794;48.348;7.878;2023-03-31T08:09:06;15.70;60.90
68011;DHT22;54794;48.348;7.878;2023-03-31T08:11:37;15.70;60.50
68011;DHT22;54794;48.348;7.878;2023-03-31T08:14:03;15.80;60.50
68011;DHT22;54794;48.348;7.878;2023-03-31T08:16:31;15.90;60.30
68011;DHT22;54794;48.348;7.878;2023-03-31T08:18:58;15.90;60.10
68011;DHT22;54794;48.348;7.878;2023-03-31T08:21:27;16.00;60.00
68011;DHT22;54794;48.348;7.878;2023-03-31T08:23:55;16.10;60.00
68011;DHT22;54794;48.348;7.878;2023-03-31T08:26:22;16.10;59.80
68011;DHT22;54794;48.348;7.878;2023-03-31T08:28:51;16.10;59.70
68011;DHT22;54794;48.348;7.878;2023-03-31T08:31:20;16.20;59.70
68011;DHT22;54794;48.348;7.878;2023-03-31T08:33:49;16.20;59.50
68011;DHT22;54794;48.348;7.878;2023-03-31T08:36:16;16.20;59.50
68011;DHT22;54794;48.348;7.878;2023-03-31T08:38:44;16.20;59.70
68011;DHT22;54794;48.348;7.878;2023-03-31T08:41:33;16.30;59.60
68011;DHT22;54794;48.348;7.878;2023-03-31T08:47:12;16.30;60.00
68011;DHT22;54794;48.348;7.878;2023-03-31T08:49:48;16.40;59.80
68011;DHT22;54794;48.348;7.878;2023-03-31T08:52:39;16.40;59.80
68011;DHT22;54794;48.348;7.878;2023-03-31T08:55:23;16.50;59.80
68011;DHT22;54794;48.348;7.878;2023-03-31T08:58:12;16.50;59.50
68011;DHT22;54794;48.348;7.878;2023-03-31T09:00:55;16.50;58.90
68011;DHT22;54794;48.348;7.878;2023-03-31T09:15:44;16.70;57.90
68011;DHT22;54794;48.348;7.878;2023-03-31T09:18:42;16.70;56.60
68011;DHT22;54794;48.348;7.878;2023-03-31T09:21:15;16.70;57.80
68011;DHT22;54794;48.348;7.878;2023-03-31T09:23:54;16.80;57.40
68011;DHT22;54794;48.348;7.878;2023-03-31T09:26:44;16.80;55.80
68011;DHT22;54794;48.348;7.878;2023-03-31T09:32:00;16.90;55.10
68011;DHT22;54794;48.348;7.878;2023-03-31T09:34:39;16.90;55.30
68011;DHT22;54794;48.348;7.878;2023-03-31T09:37:09;17.00;54.80
68011;DHT22;54794;48.348;7.878;2023-03-31T09:39:38;17.00;54.80
68011;DHT22;54794;48.348;7.878;2023-03-31T09:42:06;17.10;54.50
68011;DHT22;54794;48.348;7.878;2023-03-31T09:44:45;17.10;54.70
68011;DHT22;54794;48.348;7.878;2023-03-31T09:47:38;17.20;55.20
68011;DHT22;54794;48.348;7.878;2023-03-31T09:50:09;17.20;52.70
68011;DHT22;54794;48.348;7.878;2023-03-31T09:52:40;17.30;54.60
68011;DHT22;54794;48.348;7.878;2023-03-31T09:55:20;17.30;54.00
68011;DHT22;54794;48.348;7.878;2023-03-31T09:58:06;17.30;54.50
68011;DHT22;54794;48.348;7.878;2023-03-31T10:00:41;17.40;54.30
68011;DHT22;54794;48.348;7.878;2023-03-31T10:03:23;17.30;54.20
68011;DHT22;54794;48.348;7.878;2023-03-31T10:05:56;17.30;53.70
68011;DHT22;54794;48.348;7.878;2023-03-31T10:08:38;17.40;54.00
68011;DHT22;54794;48.348;7.878;2023-03-31T10:11:14;17.40;53.60
68011;DHT22;54794;48.348;7.878;2023-03-31T10:14:09;17.40;53.90
68011;DHT22;54794;48.348;7.878;2023-03-31T10:16:56;17.50;51.90
68011;DHT22;54794;48.348;7.878;2023-03-31T10:19:39;17.50;53.60
68011;DHT22;54794;48.348;7.878;2023-03-31T10:22:17;17.30;53.40
68011;DHT22;54794;48.348;7.878;2023-03-31T10:25:09;17.40;54.00
68011;DHT22;54794;48.348;7.878;2023-03-31T10:27:51;17.40;53.10
68011;DHT22;54794;48.348;7.878;2023-03-31T10:30:22;17.20;52.60
68011;DHT22;54794;48.348;7.878;2023-03-31T10:32:59;16.80;52.20
68011;DHT22;54794;48.348;7.878;2023-03-31T10:35:47;16.50;52.40
68011;DHT22;54794;48.348;7.878;2023-03-31T10:38:42;16.00;52.80
68011;DHT22;54794;48.348;7.878;2023-03-31T10:41:11;15.70;53.20
68011;DHT22;54794;48.348;7.878;2023-03-31T10:43:50;15.40;53.70
68011;DHT22;54794;48.348;7.878;2023-03-31T10:46:19;15.20;54.20
68011;DHT22;54794;48.348;7.878;2023-03-31T10:48:46;14.90;54.60
68011;DHT22;54794;48.348;7.878;2023-03-31T10:51:25;14.60;54.90
68011;DHT22;54794;48.348;7.878;2023-03-31T10:53:55;14.50;55.40
68011;DHT22;54794;48.348;7.878;2023-03-31T11:12:26;14.00;57.40
68011;DHT22;54794;48.348;7.878;2023-03-31T11:15:20;13.80;57.70
68011;DHT22;54794;48.348;7.878;2023-03-31T11:36:57;14.00;58.80
68011;DHT22;54794;48.348;7.878;2023-03-31T11:43:23;14.00;58.90
68011;DHT22;54794;48.348;7.878;2023-03-31T11:46:10;14.00;59.10
68011;DHT22;54794;48.348;7.878;2023-03-31T11:48:53;14.10;59.00
68011;DHT22;54794;48.348;7.878;2023-03-31T11:51:55;14.10;59.00
68011;DHT22;54794;48.348;7.878;2023-03-31T11:54:40;14.20;59.40
68011;DHT22;54794;48.348;7.878;2023-03-31T12:00:25;14.50;60.80
68011;DHT22;54794;48.348;7.878;2023-03-31T12:06:14;14.70;61.70
68011;DHT22;54794;48.348;7.878;2023-03-31T12:13:33;15.20;61.80
68011;DHT22;54794;48.348;7.878;2023-03-31T12:20:40;15.40;60.00
68011;DHT22;54794;48.348;7.878;2023-03-31T12:23:17;15.60;59.90
68011;DHT22;54794;48.348;7.878;2023-03-31T12:29:31;15.60;59.00
68011;DHT22;54794;48.348;7.878;2023-03-31T12:32:26;15.60;59.00
68011;DHT22;54794;48.348;7.878;2023-03-31T12:50:22;15.40;59.20
68011;DHT22;54794;48.348;7.878;2023-03-31T12:56:17;15.20;58.10
68011;DHT22;54794;48.348;7.878;2023-03-31T12:58:50;15.10;58.00
68011;DHT22;54794;48.348;7.878;2023-03-31T13:01:23;15.00;58.10
68011;DHT22;54794;48.348;7.878;2023-03-31T13:04:06;14.90;58.20
68011;DHT22;54794;48.348;7.878;2023-03-31T13:06:57;14.80;58.40
68011;DHT22;54794;48.348;7.878;2023-03-31T13:09:45;14.70;59.00
68011;DHT22;54794;48.348;7.878;2023-03-31T13:12:19;14.70;59.90
68011;DHT22;54794;48.348;7.878;2023-03-31T13:14:50;14.80;60.00
68011;DHT22;54794;48.348;7.878;2023-03-31T13:17:31;14.80;60.00
68011;DHT22;54794;48.348;7.878;2023-03-31T13:20:29;14.90;60.50
68011;DHT22;54794;48.348;7.878;2023-03-31T13:23:18;15.00;60.30
68011;DHT22;54794;48.348;7.878;2023-03-31T13:25:58;15.10;60.20
68011;DHT22;54794;48.348;7.878;2023-03-31T13:34:36;15.10;60.10
68011;DHT22;54794;48.348;7.878;2023-03-31T13:37:15;15.10;59.50
68011;DHT22;54794;48.348;7.878;2023-03-31T13:43:29;15.10;60.00
68011;DHT22;54794;48.348;7.878;2023-03-31T14:01:37;15.50;60.80
68011;DHT22;54794;48.348;7.878;2023-03-31T14:07:39;15.80;61.20
68011;DHT22;54794;48.348;7.878;2023-03-31T14:10:42;15.90;61.00
68011;DHT22;54794;48.348;7.878;2023-03-31T14:13:18;16.10;61.90
68011;DHT22;54794;48.348;7.878;2023-03-31T14:15:55;16.20;61.30
68011;DHT22;54794;48.348;7.878;2023-03-31T14:18:27;16.40;60.40
68011;DHT22;54794;48.348;7.878;2023-03-31T14:24:31;16.50;59.50
68011;DHT22;54794;48.348;7.878;2023-03-31T14:27:40;16.50;59.50
68011;DHT22;54794;48.348;7.878;2023-03-31T14:30:33;16.40;59.60
68011;DHT22;54794;48.348;7.878;2023-03-31T14:33:35;16.40;59.10
68011;DHT22;54794;48.348;7.878;2023-03-31T14:36:28;16.40;58.90
68011;DHT22;54794;48.348;7.878;2023-03-31T14:39:16;16.30;58.70
68011;DHT22;54794;48.348;7.878;2023-03-31T14:42:01;16.30;58.70
68011;DHT22;54794;48.348;7.878;2023-03-31T14:44:43;16.30;58.40
68011;DHT22;54794;48.348;7.878;2023-03-31T14:51:01;16.20;58.00
68011;DHT22;54794;48.348;7.878;2023-03-31T14:53:29;16.20;58.10
68011;DHT22;54794;48.348;7.878;2023-03-31T14:56:04;16.20;58.00
68011;DHT22;54794;48.348;7.878;2023-03-31T14:58:46;16.10;58.10
68011;DHT22;54794;48.348;7.878;2023-03-31T15:01:19;16.10;58.10
68011;DHT22;54794;48.348;7.878;2023-03-31T15:04:23;16.00;58.00
68011;DHT22;54794;48.348;7.878;2023-03-31T15:07:11;16.00;57.90
68011;DHT22;54794;48.348;7.878;2023-03-31T15:09:39;16.00;58.00
68011;DHT22;54794;48.348;7.878;2023-03-31T15:12:14;16.00;57.90
68011;DHT22;54794;48.348;7.878;2023-03-31T15:14:48;15.90;57.90
68011;DHT22;54794;48.348;7.878;2023-03-31T15:17:29;15.90;57.90
68011;DHT22;54794;48.348;7.878;2023-03-31T15:20:24;15.80;57.80
68011;DHT22;54794;48.348;7.878;2023-03-31T15:23:29;15.80;58.00
68011;DHT22;54794;48.348;7.878;2023-03-31T15:26:04;15.80;58.20
68011;DHT22;54794;48.348;7.878;2023-03-31T15:35:29;15.60;58.70
68011;DHT22;54794;48.348;7.878;2023-03-31T15:37:59;15.50;58.60
68011;DHT22;54794;48.348;7.878;2023-03-31T15:40:37;15.40;58.30
68011;DHT22;54794;48.348;7.878;2023-03-31T15:46:54;15.10;58.60
68011;DHT22;54794;48.348;7.878;2023-03-31T15:49:26;15.20;59.00
68011;DHT22;54794;48.348;7.878;2023-03-31T15:52:20;15.10;59.20
68011;DHT22;54794;48.348;7.878;2023-03-31T15:55:27;15.10;60.10
68011;DHT22;54794;48.348;7.878;2023-03-31T15:58:14;15.20;60.20
68011;DHT22;54794;48.348;7.878;2023-03-31T16:00:53;15.20;60.40
68011;DHT22;54794;48.348;7.878;2023-03-31T16:03:53;15.20;60.40
68011;DHT22;54794;48.348;7.878;2023-03-31T16:06:40;15.30;60.60
68011;DHT22;54794;48.348;7.878;2023-03-31T16:09:44;15.30;60.70
68011;DHT22;54794;48.348;7.878;2023-03-31T16:12:33;15.30;60.20
68011;DHT22;54794;48.348;7.878;2023-03-31T16:15:13;15.30;60.50
68011;DHT22;54794;48.348;7.878;2023-03-31T16:18:15;15.40;60.20
68011;DHT22;54794;48.348;7.878;2023-03-31T16:21:23;15.30;60.30
68011;DHT22;54794;48.348;7.878;2023-03-31T16:23:56;15.40;60.00
68011;DHT22;54794;48.348;7.878;2023-03-31T16:26:48;15.40;59.70
68011;DHT22;54794;48.348;7.878;2023-03-31T16:29:27;15.30;59.60
68011;DHT22;54794;48.348;7.878;2023-03-31T16:32:12;15.30;59.60
68011;DHT22;54794;48.348;7.878;2023-03-31T16:35:03;15.20;60.30
68011;DHT22;54794;48.348;7.878;2023-03-31T16:37:34;15.10;60.40
68011;DHT22;54794;48.348;7.878;2023-03-31T16:40:36;15.10;60.40
68011;DHT22;54794;48.348;7.878;2023-03-31T16:43:28;15.20;61.40
68011;DHT22;54794;48.348;7.878;2023-03-31T16:45:59;15.00;61.00
68011;DHT22;54794;48.348;7.878;2023-03-31T16:48:29;14.90;60.50
68011;DHT22;54794;48.348;7.878;2023-03-31T16:51:00;14.80;60.50
68011;DHT22;54794;48.348;7.878;2023-03-31T16:53:30;14.80;60.60
68011;DHT22;54794;48.348;7.878;2023-03-31T16:56:03;14.70;60.70
68011;DHT22;54794;48.348;7.878;2023-03-31T16:58:34;14.70;60.70
68011;DHT22;54794;48.348;7.878;2023-03-31T17:01:04;14.60;60.70
68011;DHT22;54794;48.348;7.878;2023-03-31T17:03:33;14.60;60.70
68011;DHT22;54794;48.348;7.878;2023-03-31T17:06:06;14.60;60.90
68011;DHT22;54794;48.348;7.878;2023-03-31T17:08:37;14.60;60.80
68011;DHT22;54794;48.348;7.878;2023-03-31T17:11:08;14.50;60.80
68011;DHT22;54794;48.348;7.878;2023-03-31T17:13:38;14.50;60.90
68011;DHT22;54794;48.348;7.878;2023-03-31T17:16:08;14.60;61.10
68011;DHT22;54794;48.348;7.878;2023-03-31T17:18:49;14.50;61.10
68011;DHT22;54794;48.348;7.878;2023-03-31T17:21:17;14.50;61.20
68011;DHT22;54794;48.348;7.878;2023-03-31T17:23:45;14.50;61.70
68011;DHT22;54794;48.348;7.878;2023-03-31T17:26:13;14.50;61.20
68011;DHT22;54794;48.348;7.878;2023-03-31T17:28:42;14.50;61.20
68011;DHT22;54794;48.348;7.878;2023-03-31T17:31:19;14.50;61.70
68011;DHT22;54794;48.348;7.878;2023-03-31T17:33:47;14.50;61.60
68011;DHT22;54794;48.348;7.878;2023-03-31T17:36:14;14.50;61.30
68011;DHT22;54794;48.348;7.878;2023-03-31T17:38:42;14.40;61.20
68011;DHT22;54794;48.348;7.878;2023-03-31T17:41:11;14.40;61.10
68011;DHT22;54794;48.348;7.878;2023-03-31T17:43:42;14.40;61.70
68011;DHT22;54794;48.348;7.878;2023-03-31T17:46:11;14.40;61.10
68011;DHT22;54794;48.348;7.878;2023-03-31T17:48:39;14.40;61.10
68011;DHT22;54794;48.348;7.878;2023-03-31T17:51:13;14.30;61.00
68011;DHT22;54794;48.348;7.878;2023-03-31T17:53:43;14.30;60.90
68011;DHT22;54794;48.348;7.878;2023-03-31T17:56:12;14.30;60.90
68011;DHT22;54794;48.348;7.878;2023-03-31T17:58:40;14.30;60.90
68011;DHT22;54794;48.348;7.878;2023-03-31T18:01:08;14.30;60.90
68011;DHT22;54794;48.348;7.878;2023-03-31T18:03:37;14.30;60.90
68011;DHT22;54794;48.348;7.878;2023-03-31T18:06:09;14.30;61.00
68011;DHT22;54794;48.348;7.878;2023-03-31T18:08:39;14.30;61.10
68011;DHT22;54794;48.348;7.878;2023-03-31T18:11:07;14.30;61.00
68011;DHT22;54794;48.348;7.878;2023-03-31T18:13:35;14.30;60.90
68011;DHT22;54794;48.348;7.878;2023-03-31T18:16:03;14.20;60.90
68011;DHT22;54794;48.348;7.878;2023-03-31T18:18:32;14.20;60.90
68011;DHT22;54794;48.348;7.878;2023-03-31T18:21:03;14.20;60.90
68011;DHT22;54794;48.348;7.878;2023-03-31T18:23:33;14.20;61.00
68011;DHT22;54794;48.348;7.878;2023-03-31T18:26:01;14.20;60.90
68011;DHT22;54794;48.348;7.878;2023-03-31T18:28:31;14.20;60.90
68011;DHT22;54794;48.348;7.878;2023-03-31T18:31:08;14.20;61.40
68011;DHT22;54794;48.348;7.878;2023-03-31T18:33:35;14.20;61.00
68011;DHT22;54794;48.348;7.878;2023-03-31T18:36:03;14.20;60.90
68011;DHT22;54794;48.348;7.878;2023-03-31T18:38:30;14.20;60.90
68011;DHT22;54794;48.348;7.878;2023-03-31T18:40:58;14.20;60.80
68011;DHT22;54794;48.348;7.878;2023-03-31T18:43:25;14.20;60.80
68011;DHT22;54794;48.348;7.878;2023-03-31T18:45:54;14.20;60.90
68011;DHT22;54794;48.348;7.878;2023-03-31T18:48:23;14.20;60.80
68011;DHT22;54794;48.348;7.878;2023-03-31T18:50:51;14.20;60.90
68011;DHT22;54794;48.348;7.878;2023-03-31T18:53:20;14.20;61.40
68011;DHT22;54794;48.348;7.878;2023-03-31T18:55:50;14.20;60.90
68011;DHT22;54794;48.348;7.878;2023-03-31T18:58:17;14.20;60.90
68011;DHT22;54794;48.348;7.878;2023-03-31T19:00:45;14.20;60.80
68011;DHT22;54794;48.348;7.878;2023-03-31T19:03:12;14.20;61.00
68011;DHT22;54794;48.348;7.878;2023-03-31T19:05:40;14.20;61.40
68011;DHT22;54794;48.348;7.878;2023-03-31T19:08:07;14.20;60.90
68011;DHT22;54794;48.348;7.878;2023-03-31T19:10:34;14.20;61.00